Portada
METAR-TAF:

METAR-TAF

Aeroports :

Sohag, Egipte

latitud: 26-20-25N, longitud: 31-44-20E, altitud: 70 m

Observació

L'informe es va fer fa 1 hora i 22 minuts, a les 02:00 UTC
Vent 6 kt del Oest
Temperatura 11°C
Humitat 66%
Pressió 1014 hPa
Visibilitat 10 km o més
sense núvols per sota de 1500 mi sense presència de cumulonimbus.

METAR: HESG 030200Z 27006KT CAVOK 11/05 Q1014 NOSIG

Hora: 05:22 (03:22 UTC)

Pronòstic

L'informe es va fer fa 4 hores i 22 minuts, a les 23:00 UTC
Pronòstic vàlid del 03 a les 00 UTC al 04 a les 06 UTC
Vent 7 kt del Nord-Oest
Visibilitat 10 km o més
sense núvols per sota de 1500 mi sense presència de cumulonimbus.

TAF: HESG 022300Z 0300/0406 32007KT CAVOK

Observacions i pronòstics meteorològics de més de 4000 aeroports (METAR i TAF).

Les estacions disponibles són els punts grocs i vermells al mapa.

Posi el ratolí al punt desitjat per veure el nom de l'estació.

Feu clic per veure les observacions i els pronòstics meteorològics.

Per canviar el mapa: feu clic els botons verds amb una creu de color negre per apropar; al botó verd amb un guió per allunyar la imatge; o en les fletxes verdes per a mapes adjacents.


METAR-TAF: